createdAt,value
2022-08-25T00:01:26.986Z,5.80
2022-08-25T00:03:56.450Z,3.65
2022-08-25T00:06:24.884Z,3.15
2022-08-25T00:08:52.918Z,3.42
2022-08-25T00:11:25.227Z,3.53
2022-08-25T00:13:55.907Z,4.93
2022-08-25T00:16:25.658Z,4.75
2022-08-25T00:18:58.576Z,4.72
2022-08-25T00:21:27.204Z,3.65
2022-08-25T00:23:55.989Z,3.25
2022-08-25T00:26:26.246Z,3.72
2022-08-25T00:29:01.080Z,3.45
2022-08-25T00:31:38.430Z,4.32
2022-08-25T00:34:09.432Z,4.10
2022-08-25T00:36:38.656Z,5.53
2022-08-25T00:39:09.134Z,3.55
2022-08-25T00:41:39.284Z,4.60
2022-08-25T00:44:10.225Z,3.80
2022-08-25T00:46:43.466Z,3.13
2022-08-25T00:49:22.467Z,4.88
2022-08-25T00:51:56.717Z,5.00
2022-08-25T00:54:28.529Z,5.10
2022-08-25T00:56:59.585Z,5.30
2022-08-25T00:59:28.880Z,4.30
2022-08-25T01:01:59.001Z,4.20
2022-08-25T01:04:27.913Z,7.15
2022-08-25T01:06:57.724Z,3.30
2022-08-25T01:09:26.331Z,3.88
2022-08-25T01:11:54.446Z,3.53
2022-08-25T01:14:26.459Z,4.35
2022-08-25T01:16:55.198Z,3.38
2022-08-25T01:19:23.495Z,4.10
2022-08-25T01:21:54.502Z,3.75
2022-08-25T01:24:31.457Z,3.88
2022-08-25T01:26:59.870Z,4.03
2022-08-25T01:29:28.484Z,3.58
2022-08-25T01:31:58.774Z,5.57
2022-08-25T01:36:58.396Z,4.03
2022-08-25T01:39:27.801Z,3.38
2022-08-25T01:42:10.590Z,4.10
2022-08-25T01:44:41.200Z,3.10
2022-08-25T01:47:09.801Z,5.18
2022-08-25T01:49:38.094Z,4.03
2022-08-25T01:52:13.236Z,6.47
2022-08-25T01:54:41.302Z,5.47
2022-08-25T01:57:09.476Z,4.00
2022-08-25T01:59:37.453Z,5.72
2022-08-25T02:02:06.133Z,4.72
2022-08-25T02:04:35.392Z,6.55
2022-08-25T02:07:05.407Z,4.07
2022-08-25T02:09:36.233Z,5.60
2022-08-25T02:12:05.071Z,4.43
2022-08-25T02:14:33.001Z,4.65
2022-08-25T02:17:01.096Z,3.45
2022-08-25T02:19:31.104Z,4.75
2022-08-25T02:21:59.822Z,4.47
2022-08-25T02:24:28.029Z,3.33
2022-08-25T02:26:58.131Z,3.50
2022-08-25T02:29:26.289Z,3.80
2022-08-25T02:31:54.316Z,4.57
2022-08-25T02:34:23.374Z,3.90
2022-08-25T02:36:51.750Z,4.68
2022-08-25T02:39:19.757Z,6.13
2022-08-25T02:41:47.724Z,3.40
2022-08-25T02:44:17.614Z,4.03
2022-08-25T02:46:45.653Z,9.18
2022-08-25T02:49:13.655Z,3.90
2022-08-25T02:51:42.921Z,7.63
2022-08-25T02:54:11.096Z,6.30
2022-08-25T02:56:40.155Z,4.78
2022-08-25T02:59:08.201Z,6.38
2022-08-25T03:01:37.748Z,5.03
2022-08-25T03:04:07.139Z,4.38
2022-08-25T03:06:35.306Z,5.10
2022-08-25T03:09:03.262Z,4.07
2022-08-25T03:11:31.860Z,4.10
2022-08-25T03:13:59.814Z,4.32
2022-08-25T03:16:29.408Z,4.68
2022-08-25T03:18:59.614Z,4.28
2022-08-25T03:21:29.298Z,3.92
2022-08-25T03:23:59.888Z,4.20
2022-08-25T03:26:45.811Z,5.97
2022-08-25T03:29:13.940Z,4.30
2022-08-25T03:31:43.829Z,3.95
2022-08-25T03:34:13.559Z,4.78
2022-08-25T03:36:41.929Z,4.22
2022-08-25T03:39:10.051Z,4.03
2022-08-25T03:41:38.348Z,4.85
2022-08-25T03:44:09.186Z,5.50
2022-08-25T03:46:41.313Z,4.30
2022-08-25T03:49:11.505Z,5.25
2022-08-25T03:51:47.349Z,4.97
2022-08-25T03:54:16.573Z,4.82
2022-08-25T03:56:45.449Z,4.38
2022-08-25T03:59:13.935Z,5.68
2022-08-25T04:01:44.260Z,4.80
2022-08-25T04:06:43.299Z,5.20
2022-08-25T04:09:11.871Z,4.13
2022-08-25T04:11:40.262Z,8.90
2022-08-25T04:14:15.849Z,9.40
2022-08-25T04:16:45.864Z,5.00
2022-08-25T04:19:14.000Z,6.60
2022-08-25T04:21:43.954Z,13.30
2022-08-25T04:24:13.560Z,9.35
2022-08-25T04:26:44.085Z,6.38
2022-08-25T04:29:14.591Z,7.00
2022-08-25T04:31:47.057Z,6.75
2022-08-25T04:34:29.966Z,6.22
2022-08-25T04:37:01.940Z,6.03
2022-08-25T04:39:30.702Z,4.93
2022-08-25T04:42:00.439Z,7.00
2022-08-25T04:44:28.967Z,5.07
2022-08-25T04:46:56.972Z,8.13
2022-08-25T04:49:24.933Z,6.20
2022-08-25T04:51:52.875Z,5.00
2022-08-25T04:54:22.846Z,6.72
2022-08-25T04:56:54.067Z,5.78
2022-08-25T04:59:24.595Z,5.03
2022-08-25T05:01:58.743Z,4.88
2022-08-25T05:04:28.729Z,4.95
2022-08-25T05:06:57.231Z,5.60
2022-08-25T05:09:27.514Z,4.93
2022-08-25T05:11:56.514Z,4.38
2022-08-25T05:14:26.736Z,5.00
2022-08-25T05:19:24.024Z,5.93
2022-08-25T05:21:52.578Z,4.85
2022-08-25T05:24:22.069Z,5.38
2022-08-25T05:26:51.523Z,8.37
2022-08-25T05:29:19.578Z,6.35
2022-08-25T05:31:50.637Z,8.38
2022-08-25T05:34:19.685Z,7.30
2022-08-25T05:36:47.974Z,6.88
2022-08-25T05:39:16.309Z,5.82
2022-08-25T05:41:44.449Z,5.43
2022-08-25T05:44:15.921Z,6.03
2022-08-25T05:46:46.280Z,6.50
2022-08-25T05:49:14.266Z,8.13
2022-08-25T05:51:42.362Z,5.65
2022-08-25T05:54:10.428Z,7.95
2022-08-25T05:56:38.378Z,11.18
2022-08-25T05:59:09.460Z,5.65
2022-08-25T06:01:56.747Z,5.28
2022-08-25T06:04:24.856Z,10.15
2022-08-25T06:06:54.913Z,7.10
2022-08-25T06:09:24.077Z,7.80
2022-08-25T06:11:54.886Z,8.40
2022-08-25T06:14:23.973Z,5.90
2022-08-25T06:16:53.977Z,10.85
2022-08-25T06:19:23.358Z,5.95
2022-08-25T06:21:55.314Z,6.13
2022-08-25T06:24:24.274Z,6.47
2022-08-25T06:26:52.245Z,5.65
2022-08-25T06:29:20.881Z,8.15
2022-08-25T06:31:49.918Z,6.22
2022-08-25T06:34:20.434Z,6.18
2022-08-25T06:36:52.266Z,5.50
2022-08-25T06:39:20.370Z,6.07
2022-08-25T06:41:52.431Z,6.47
2022-08-25T06:44:20.501Z,6.00
2022-08-25T06:46:48.690Z,7.40
2022-08-25T06:49:17.083Z,8.32
2022-08-25T06:51:46.490Z,5.53
2022-08-25T06:54:14.843Z,6.20
2022-08-25T06:56:43.378Z,5.97
2022-08-25T06:59:12.573Z,6.10
2022-08-25T07:01:41.010Z,5.78
2022-08-25T07:04:13.117Z,7.55
2022-08-25T07:06:42.441Z,5.25
2022-08-25T07:09:13.655Z,5.65
2022-08-25T07:11:42.763Z,8.05
2022-08-25T07:14:12.172Z,5.70
2022-08-25T07:16:40.966Z,5.57
2022-08-25T07:19:10.449Z,6.30
2022-08-25T07:21:45.837Z,7.15
2022-08-25T07:24:16.413Z,6.72
2022-08-25T07:26:46.831Z,6.47
2022-08-25T07:29:20.400Z,10.10
2022-08-25T07:32:00.663Z,9.23
2022-08-25T07:34:46.012Z,8.02
2022-08-25T07:37:47.200Z,10.48
2022-08-25T07:40:13.649Z,8.07
2022-08-25T07:42:42.853Z,9.40
2022-08-25T07:45:12.753Z,9.47
2022-08-25T07:47:41.076Z,10.38
2022-08-25T07:50:12.467Z,7.85
2022-08-25T07:52:41.038Z,10.30
2022-08-25T07:55:12.075Z,9.23
2022-08-25T07:57:48.968Z,8.45
2022-08-25T08:00:22.791Z,9.43
2022-08-25T08:02:52.741Z,9.57
2022-08-25T08:05:21.605Z,8.75
2022-08-25T08:07:52.093Z,9.85
2022-08-25T08:10:53.430Z,10.38
2022-08-25T08:13:16.482Z,11.65
2022-08-25T08:15:47.281Z,10.98
2022-08-25T08:18:15.881Z,11.48
2022-08-25T08:20:45.620Z,12.77
2022-08-25T08:23:13.693Z,11.75
2022-08-25T08:25:43.368Z,15.88
2022-08-25T08:28:11.416Z,14.52
2022-08-25T08:30:39.515Z,17.05
2022-08-25T08:33:20.113Z,14.68
2022-08-25T08:35:48.139Z,19.17
2022-08-25T08:38:20.888Z,15.00
2022-08-25T08:41:27.577Z,14.10
2022-08-25T08:46:50.636Z,14.68
2022-08-25T08:49:26.830Z,15.43
2022-08-25T08:52:02.734Z,15.15
2022-08-25T08:54:34.968Z,14.77
2022-08-25T08:57:12.650Z,15.23
2022-08-25T08:59:48.702Z,14.20
2022-08-25T09:02:39.507Z,16.63
2022-08-25T09:05:15.194Z,16.60
2022-08-25T09:07:54.766Z,14.73
2022-08-25T09:10:25.638Z,15.23
2022-08-25T09:13:05.899Z,14.50
2022-08-25T09:16:04.353Z,15.35
2022-08-25T09:18:51.002Z,14.88
2022-08-25T09:21:32.183Z,15.75
2022-08-25T09:24:15.691Z,12.93
2022-08-25T09:26:51.691Z,12.77
2022-08-25T09:29:26.169Z,13.02
2022-08-25T09:31:59.860Z,12.55
2022-08-25T09:34:33.643Z,13.57
2022-08-25T09:37:03.002Z,12.52
2022-08-25T09:39:31.068Z,13.75
2022-08-25T09:42:00.722Z,12.32
2022-08-25T09:44:33.620Z,12.25
2022-08-25T09:47:05.095Z,13.10
2022-08-25T09:49:37.582Z,12.40
2022-08-25T09:52:25.235Z,14.13
2022-08-25T09:54:55.149Z,13.55
2022-08-25T09:57:35.685Z,12.98
2022-08-25T10:00:18.409Z,13.52
2022-08-25T10:03:05.713Z,14.55
2022-08-25T10:05:36.627Z,16.13
2022-08-25T10:08:11.663Z,14.88
2022-08-25T10:10:47.292Z,12.20
2022-08-25T10:13:22.648Z,12.20
2022-08-25T10:16:20.190Z,13.15
2022-08-25T10:19:12.674Z,17.13
2022-08-25T10:21:42.650Z,12.45
2022-08-25T10:24:13.591Z,12.95
2022-08-25T10:29:32.627Z,12.82
2022-08-25T10:32:11.518Z,11.88
2022-08-25T10:34:51.643Z,13.00
2022-08-25T10:40:01.942Z,12.55
2022-08-25T10:42:37.773Z,15.00
2022-08-25T10:45:38.030Z,13.00
2022-08-25T10:48:26.614Z,12.48
2022-08-25T10:51:00.930Z,12.25
2022-08-25T10:53:35.682Z,12.35
2022-08-25T10:56:09.063Z,11.75
2022-08-25T10:59:04.322Z,12.30
2022-08-25T11:01:45.294Z,12.85
2022-08-25T11:04:21.645Z,12.18
2022-08-25T11:06:59.200Z,12.40
2022-08-25T11:09:31.983Z,12.60
2022-08-25T11:12:09.982Z,18.55
2022-08-25T11:14:41.544Z,12.43
2022-08-25T11:17:15.608Z,12.65
2022-08-25T11:19:50.134Z,12.48
2022-08-25T11:22:24.167Z,12.50
2022-08-25T11:25:04.484Z,12.73
2022-08-25T11:27:39.643Z,12.30
2022-08-25T11:30:11.395Z,18.00
2022-08-25T11:32:41.051Z,11.18
2022-08-25T11:35:14.709Z,12.95
2022-08-25T11:37:54.576Z,11.50
2022-08-25T11:43:25.993Z,12.13
2022-08-25T11:46:04.339Z,11.80
2022-08-25T11:48:55.006Z,10.20
2022-08-25T11:51:36.490Z,11.98
2022-08-25T11:54:26.506Z,10.75
2022-08-25T11:57:00.074Z,9.88
2022-08-25T12:00:05.508Z,9.93
2022-08-25T12:02:37.973Z,10.18
2022-08-25T12:05:08.736Z,11.50
2022-08-25T12:08:19.678Z,10.65
2022-08-25T12:11:11.085Z,10.48
2022-08-25T12:13:48.536Z,10.02
2022-08-25T12:16:40.319Z,11.15
2022-08-25T12:19:30.498Z,10.60
2022-08-25T12:22:37.985Z,10.70
2022-08-25T12:25:14.864Z,10.55
2022-08-25T12:27:49.897Z,9.57
2022-08-25T12:30:22.829Z,9.52
2022-08-25T12:33:06.806Z,9.82
2022-08-25T12:35:41.063Z,9.75
2022-08-25T12:38:13.801Z,12.23
2022-08-25T12:41:02.526Z,10.13
2022-08-25T12:43:37.823Z,9.75
2022-08-25T12:46:35.782Z,9.07
2022-08-25T12:49:06.448Z,10.23
2022-08-25T12:51:57.424Z,9.45
2022-08-25T12:54:47.494Z,9.70
2022-08-25T12:57:33.768Z,10.10
2022-08-25T13:00:16.038Z,13.05
2022-08-25T13:03:22.425Z,11.65
2022-08-25T13:06:15.187Z,12.93
2022-08-25T13:09:18.727Z,11.10
2022-08-25T13:11:54.664Z,11.02
2022-08-25T13:14:37.729Z,10.68
2022-08-25T13:17:06.833Z,11.75
2022-08-25T13:19:38.671Z,10.95
2022-08-25T13:22:16.579Z,10.25
2022-08-25T13:24:50.419Z,10.68
2022-08-25T13:27:27.824Z,10.35
2022-08-25T13:30:03.841Z,10.48
2022-08-25T13:32:35.651Z,10.30
2022-08-25T13:35:17.802Z,11.57
2022-08-25T13:37:48.813Z,10.80
2022-08-25T13:40:26.143Z,10.98
2022-08-25T13:43:01.240Z,11.32
2022-08-25T13:45:40.896Z,11.70
2022-08-25T13:48:22.462Z,10.80
2022-08-25T13:50:52.906Z,11.23
2022-08-25T13:53:25.204Z,17.25
2022-08-25T13:55:57.147Z,10.55
2022-08-25T13:58:39.365Z,11.10
2022-08-25T14:01:22.805Z,13.57
2022-08-25T14:04:29.595Z,10.82
2022-08-25T14:07:19.653Z,11.07
2022-08-25T14:09:51.632Z,12.47
2022-08-25T14:12:33.725Z,12.73
2022-08-25T14:15:05.624Z,11.23
2022-08-25T14:17:40.048Z,10.02
2022-08-25T14:20:18.176Z,9.77
2022-08-25T14:22:46.536Z,10.88
2022-08-25T14:25:14.464Z,12.18
2022-08-25T14:28:06.517Z,10.93
2022-08-25T14:30:35.853Z,11.30
2022-08-25T14:33:06.868Z,11.50
2022-08-25T14:35:35.381Z,11.00
2022-08-25T14:38:08.493Z,13.05
2022-08-25T14:40:37.773Z,10.98
2022-08-25T14:43:06.226Z,10.65
2022-08-25T14:45:40.478Z,11.20
2022-08-25T14:48:14.215Z,10.43
2022-08-25T14:50:42.525Z,11.98
2022-08-25T14:53:12.624Z,12.80
2022-08-25T14:55:40.764Z,10.82
2022-08-25T14:58:09.535Z,12.30
2022-08-25T15:00:41.417Z,11.30
2022-08-25T15:03:13.276Z,11.15
2022-08-25T15:05:41.790Z,10.38
2022-08-25T15:08:32.941Z,10.88
2022-08-25T15:11:01.710Z,11.25
2022-08-25T15:13:37.039Z,12.00
2022-08-25T15:16:05.755Z,12.20
2022-08-25T15:18:35.627Z,12.13
2022-08-25T15:21:04.482Z,11.63
2022-08-25T15:23:32.575Z,11.40
2022-08-25T15:26:03.698Z,10.88
2022-08-25T15:28:33.302Z,15.60
2022-08-25T15:31:01.256Z,10.95
2022-08-25T15:33:29.205Z,10.98
2022-08-25T15:35:58.605Z,11.68
2022-08-25T15:38:26.594Z,12.48
2022-08-25T15:40:54.734Z,12.00
2022-08-25T15:43:23.044Z,10.95
2022-08-25T15:45:51.629Z,11.68
2022-08-25T15:48:19.637Z,11.20
2022-08-25T15:50:48.911Z,11.63
2022-08-25T15:53:18.360Z,10.68
2022-08-25T15:58:14.950Z,11.90
2022-08-25T16:00:45.293Z,11.80
2022-08-25T16:03:24.561Z,11.88
2022-08-25T16:05:52.604Z,10.82
2022-08-25T16:08:21.841Z,12.00
2022-08-25T16:10:50.102Z,15.00
2022-08-25T16:13:18.576Z,11.90
2022-08-25T16:15:53.154Z,13.90
2022-08-25T16:18:23.295Z,10.70
2022-08-25T16:20:51.636Z,11.48
2022-08-25T16:23:21.998Z,11.65
2022-08-25T16:25:51.757Z,16.40
2022-08-25T16:28:20.732Z,10.90
2022-08-25T16:30:53.140Z,10.95
2022-08-25T16:33:21.323Z,10.70
2022-08-25T16:35:49.631Z,11.20
2022-08-25T16:38:17.975Z,11.48
2022-08-25T16:40:47.821Z,11.40
2022-08-25T16:48:14.446Z,14.00
2022-08-25T16:50:42.799Z,11.07
2022-08-25T16:53:30.920Z,12.02
2022-08-25T16:56:05.065Z,11.63
2022-08-25T16:58:35.649Z,10.20
2022-08-25T17:03:35.107Z,12.38
2022-08-25T17:06:03.908Z,11.13
2022-08-25T17:08:33.331Z,12.10
2022-08-25T17:11:10.250Z,13.15
2022-08-25T17:13:39.860Z,10.88
2022-08-25T17:16:13.410Z,11.02
2022-08-25T17:18:43.279Z,11.70
2022-08-25T17:21:24.413Z,12.18
2022-08-25T17:23:53.231Z,11.65
2022-08-25T17:26:27.751Z,12.65
2022-08-25T17:28:57.664Z,11.75
2022-08-25T17:31:28.264Z,11.07
2022-08-25T17:33:57.968Z,11.95
2022-08-25T17:36:26.986Z,11.88
2022-08-25T17:38:56.799Z,13.82
2022-08-25T17:41:26.616Z,11.98
2022-08-25T17:43:54.664Z,11.00
2022-08-25T17:46:22.950Z,11.80
2022-08-25T17:48:52.751Z,10.63
2022-08-25T17:51:21.499Z,13.02
2022-08-25T17:53:50.637Z,12.40
2022-08-25T17:56:20.929Z,12.18
2022-08-25T17:58:52.407Z,15.10
2022-08-25T18:01:23.462Z,11.68
2022-08-25T18:03:52.677Z,13.57
2022-08-25T18:06:21.951Z,13.05
2022-08-25T18:08:54.487Z,11.75
2022-08-25T18:11:26.931Z,11.15
2022-08-25T18:13:56.973Z,11.82
2022-08-25T18:16:26.031Z,12.38
2022-08-25T18:21:30.589Z,11.98
2022-08-25T18:23:59.490Z,13.65
2022-08-25T18:26:28.188Z,11.83
2022-08-25T18:28:57.583Z,12.02
2022-08-25T18:33:54.051Z,12.77
2022-08-25T18:36:22.393Z,14.80
2022-08-25T18:39:08.123Z,13.20
2022-08-25T18:41:38.803Z,16.42
2022-08-25T18:44:10.673Z,13.43
2022-08-25T18:46:39.777Z,12.82
2022-08-25T18:49:08.559Z,13.10
2022-08-25T18:51:37.100Z,12.98
2022-08-25T18:54:05.806Z,12.77
2022-08-25T18:56:35.623Z,13.18
2022-08-25T18:59:04.442Z,14.05
2022-08-25T19:01:34.115Z,14.02
2022-08-25T19:04:02.459Z,13.38
2022-08-25T19:06:31.522Z,13.43
2022-08-25T19:11:28.566Z,12.70
2022-08-25T19:13:57.968Z,13.25
2022-08-25T19:16:35.658Z,13.68
2022-08-25T19:19:06.443Z,13.95
2022-08-25T19:21:34.867Z,12.45
2022-08-25T19:24:03.377Z,15.68
2022-08-25T19:26:33.407Z,12.90
2022-08-25T19:29:02.125Z,12.90
2022-08-25T19:31:33.269Z,12.68
2022-08-25T19:34:03.709Z,12.68
2022-08-25T19:36:32.275Z,13.10
2022-08-25T19:39:01.961Z,13.65
2022-08-25T19:41:31.429Z,12.93
2022-08-25T19:43:59.812Z,14.38
2022-08-25T19:46:32.613Z,12.63
2022-08-25T19:49:08.072Z,12.98
2022-08-25T19:51:38.159Z,13.38
2022-08-25T19:54:09.028Z,13.38
2022-08-25T19:56:43.518Z,14.45
2022-08-25T19:59:22.358Z,14.80
2022-08-25T20:01:50.983Z,13.15
2022-08-25T20:04:21.607Z,13.85
2022-08-25T20:06:52.851Z,13.38
2022-08-25T20:09:39.415Z,14.07
2022-08-25T20:12:11.870Z,13.55
2022-08-25T20:14:40.293Z,14.80
2022-08-25T20:17:14.481Z,14.38
2022-08-25T20:19:55.565Z,13.57
2022-08-25T20:22:26.238Z,13.63
2022-08-25T20:24:58.604Z,13.98
2022-08-25T20:27:31.912Z,14.18
2022-08-25T20:30:02.430Z,15.25
2022-08-25T20:32:32.621Z,14.05
2022-08-25T20:35:02.325Z,13.55
2022-08-25T20:37:31.418Z,13.52
2022-08-25T20:40:02.557Z,15.55
2022-08-25T20:42:30.809Z,13.63
2022-08-25T20:44:59.184Z,14.25
2022-08-25T20:47:27.409Z,12.95
2022-08-25T20:49:56.195Z,13.40
2022-08-25T20:52:26.193Z,12.88
2022-08-25T20:57:25.918Z,14.35
2022-08-25T20:59:54.954Z,14.85
2022-08-25T21:02:23.144Z,13.52
2022-08-25T21:04:51.822Z,14.07
2022-08-25T21:07:21.311Z,15.13
2022-08-25T21:09:54.117Z,14.90
2022-08-25T21:12:22.566Z,15.13
2022-08-25T21:14:51.883Z,14.85
2022-08-25T21:17:21.082Z,15.82
2022-08-25T21:19:50.042Z,15.03
2022-08-25T21:22:18.525Z,14.52
2022-08-25T21:24:47.421Z,13.75
2022-08-25T21:27:16.921Z,13.90
2022-08-25T21:29:54.561Z,15.85
2022-08-25T21:32:24.135Z,13.55
2022-08-25T21:34:53.989Z,14.68
2022-08-25T21:37:22.260Z,15.02
2022-08-25T21:39:50.545Z,14.35
2022-08-25T21:42:21.289Z,13.98
2022-08-25T21:44:50.529Z,13.02
2022-08-25T21:47:21.300Z,13.70
2022-08-25T21:49:50.520Z,12.93
2022-08-25T21:52:19.138Z,14.85
2022-08-25T21:54:47.878Z,14.18
2022-08-25T21:57:19.132Z,13.73
2022-08-25T21:59:52.986Z,15.32
2022-08-25T22:02:23.211Z,15.38
2022-08-25T22:04:53.654Z,14.93
2022-08-25T22:07:24.518Z,13.63
2022-08-25T22:09:53.360Z,14.88
2022-08-25T22:12:21.483Z,13.40
2022-08-25T22:14:49.746Z,14.32
2022-08-25T22:17:21.050Z,14.40
2022-08-25T22:19:53.840Z,15.50
2022-08-25T22:22:22.496Z,14.23
2022-08-25T22:24:50.649Z,13.15
2022-08-25T22:27:18.963Z,14.30
2022-08-25T22:29:51.745Z,14.43
2022-08-25T22:32:21.636Z,14.25
2022-08-25T22:34:50.063Z,14.88
2022-08-25T22:37:18.152Z,15.05
2022-08-25T22:39:47.210Z,13.93
2022-08-25T22:42:18.471Z,14.48
2022-08-25T22:44:46.467Z,13.85
2022-08-25T22:47:14.501Z,13.70
2022-08-25T22:49:44.262Z,15.20
2022-08-25T22:54:42.509Z,14.63
2022-08-25T22:57:11.883Z,15.70
2022-08-25T22:59:40.722Z,15.60
2022-08-25T23:02:09.549Z,15.10
2022-08-25T23:04:41.102Z,14.45
2022-08-25T23:07:11.969Z,13.60
2022-08-25T23:09:40.043Z,13.73
2022-08-25T23:12:08.739Z,12.98
2022-08-25T23:14:37.315Z,14.90
2022-08-25T23:17:07.570Z,14.57
2022-08-25T23:19:36.241Z,17.42
2022-08-25T23:22:09.545Z,15.38
2022-08-25T23:24:42.607Z,16.35
2022-08-25T23:27:13.594Z,14.25
2022-08-25T23:29:45.144Z,14.57
2022-08-25T23:32:14.872Z,15.20
2022-08-25T23:34:46.510Z,15.55
2022-08-25T23:37:18.660Z,16.30
2022-08-25T23:39:50.036Z,15.32
2022-08-25T23:42:19.803Z,16.67
2022-08-25T23:44:48.144Z,15.50
2022-08-25T23:47:16.227Z,15.00
2022-08-25T23:49:44.389Z,14.80
2022-08-25T23:52:12.305Z,15.20
2022-08-25T23:54:40.578Z,15.40
2022-08-25T23:57:10.275Z,16.48
2022-08-25T23:59:38.544Z,16.38
